sensor_id;sensor_type;location;lat;lon;timestamp;pressure;altitude;pressure_sealevel;temperature;humidity
22257;BME280;11297;42.686;23.374;2023-03-25T00:02:17;94705.25;;;13.45;51.83
22257;BME280;11297;42.686;23.374;2023-03-25T00:04:43;94719.28;;;13.52;52.73
22257;BME280;11297;42.686;23.374;2023-03-25T00:07:08;94722.34;;;13.54;52.42
22257;BME280;11297;42.686;23.374;2023-03-25T00:09:34;94715.38;;;13.58;51.61
22257;BME280;11297;42.686;23.374;2023-03-25T00:12:00;94718.50;;;13.52;51.03
22257;BME280;11297;42.686;23.374;2023-03-25T00:14:25;94722.91;;;13.60;51.43
22257;BME280;11297;42.686;23.374;2023-03-25T00:16:51;94721.81;;;13.73;51.58
22257;BME280;11297;42.686;23.374;2023-03-25T00:19:17;94702.34;;;13.70;51.19
22257;BME280;11297;42.686;23.374;2023-03-25T00:21:46;94709.88;;;13.84;51.60
22257;BME280;11297;42.686;23.374;2023-03-25T00:24:15;94693.41;;;13.83;51.47
22257;BME280;11297;42.686;23.374;2023-03-25T00:26:47;94706.47;;;13.95;51.37
22257;BME280;11297;42.686;23.374;2023-03-25T00:29:14;94701.56;;;13.93;51.77
22257;BME280;11297;42.686;23.374;2023-03-25T00:31:40;94697.47;;;13.92;51.75
22257;BME280;11297;42.686;23.374;2023-03-25T00:34:06;94693.31;;;13.91;51.73
22257;BME280;11297;42.686;23.374;2023-03-25T00:36:32;94696.69;;;13.92;51.69
22257;BME280;11297;42.686;23.374;2023-03-25T00:39:04;94705.28;;;13.92;51.67
22257;BME280;11297;42.686;23.374;2023-03-25T00:41:29;94698.88;;;13.90;51.61
22257;BME280;11297;42.686;23.374;2023-03-25T00:43:56;94704.00;;;13.86;51.84
22257;BME280;11297;42.686;23.374;2023-03-25T00:46:24;94697.88;;;13.83;51.62
22257;BME280;11297;42.686;23.374;2023-03-25T00:48:51;94691.69;;;13.75;51.47
22257;BME280;11297;42.686;23.374;2023-03-25T00:51:18;94691.69;;;13.75;50.86
22257;BME280;11297;42.686;23.374;2023-03-25T00:53:47;94690.59;;;13.76;50.40
22257;BME280;11297;42.686;23.374;2023-03-25T00:56:12;94692.44;;;13.76;50.33
22257;BME280;11297;42.686;23.374;2023-03-25T00:58:38;94677.97;;;13.66;50.50
22257;BME280;11297;42.686;23.374;2023-03-25T01:01:12;94690.38;;;13.69;50.46
22257;BME280;11297;42.686;23.374;2023-03-25T01:03:39;94668.09;;;13.60;50.14
22257;BME280;11297;42.686;23.374;2023-03-25T01:06:12;94677.22;;;13.66;50.13
22257;BME280;11297;42.686;23.374;2023-03-25T01:08:38;94676.34;;;13.62;50.23
22257;BME280;11297;42.686;23.374;2023-03-25T01:11:05;94679.50;;;13.67;50.31
22257;BME280;11297;42.686;23.374;2023-03-25T01:13:32;94679.59;;;13.71;50.56
22257;BME280;11297;42.686;23.374;2023-03-25T01:15:57;94664.94;;;13.66;50.40
22257;BME280;11297;42.686;23.374;2023-03-25T01:18:23;94677.31;;;13.69;50.78
22257;BME280;11297;42.686;23.374;2023-03-25T01:20:48;94669.81;;;13.68;50.92
22257;BME280;11297;42.686;23.374;2023-03-25T01:23:13;94664.38;;;13.61;50.79
22257;BME280;11297;42.686;23.374;2023-03-25T01:25:39;94659.38;;;13.56;50.94
22257;BME280;11297;42.686;23.374;2023-03-25T01:28:05;94665.66;;;13.55;50.84
22257;BME280;11297;42.686;23.374;2023-03-25T01:30:30;94665.25;;;13.53;50.99
22257;BME280;11297;42.686;23.374;2023-03-25T01:32:56;94657.31;;;13.49;51.16
22257;BME280;11297;42.686;23.374;2023-03-25T01:35:21;94609.53;;;13.25;51.03
22257;BME280;11297;42.686;23.374;2023-03-25T01:37:47;94642.97;;;13.43;51.34
22257;BME280;11297;42.686;23.374;2023-03-25T01:40:18;94636.84;;;13.39;51.58
22257;BME280;11297;42.686;23.374;2023-03-25T01:42:44;94639.13;;;13.41;51.51
22257;BME280;11297;42.686;23.374;2023-03-25T01:45:21;94640.34;;;13.43;51.63
22257;BME280;11297;42.686;23.374;2023-03-25T01:48:01;94635.44;;;13.42;51.69
22257;BME280;11297;42.686;23.374;2023-03-25T01:50:29;94639.78;;;13.38;51.90
22257;BME280;11297;42.686;23.374;2023-03-25T01:52:57;94640.88;;;13.37;51.47
22257;BME280;11297;42.686;23.374;2023-03-25T01:55:24;94638.06;;;13.30;51.38
22257;BME280;11297;42.686;23.374;2023-03-25T01:57:53;94641.84;;;13.33;51.52
22257;BME280;11297;42.686;23.374;2023-03-25T02:00:19;94612.34;;;13.08;51.77
22257;BME280;11297;42.686;23.374;2023-03-25T02:02:45;94640.63;;;13.18;51.74
22257;BME280;11297;42.686;23.374;2023-03-25T02:05:21;94642.13;;;13.07;51.86
22257;BME280;11297;42.686;23.374;2023-03-25T02:07:50;94639.31;;;13.00;51.98
22257;BME280;11297;42.686;23.374;2023-03-25T02:10:17;94638.16;;;12.89;52.42
22257;BME280;11297;42.686;23.374;2023-03-25T02:12:43;94627.66;;;12.78;52.71
22257;BME280;11297;42.686;23.374;2023-03-25T02:15:11;94627.81;;;12.81;52.92
22257;BME280;11297;42.686;23.374;2023-03-25T02:17:50;94614.22;;;12.76;52.73
22257;BME280;11297;42.686;23.374;2023-03-25T02:20:49;94632.72;;;12.83;52.64
22257;BME280;11297;42.686;23.374;2023-03-25T02:43:23;94627.56;;;12.22;55.19
22257;BME280;11297;42.686;23.374;2023-03-25T02:45:53;94623.56;;;12.04;55.83
22257;BME280;11297;42.686;23.374;2023-03-25T02:51:21;94622.63;;;11.80;57.24
22257;BME280;11297;42.686;23.374;2023-03-25T02:53:49;94626.06;;;11.72;57.21
22257;BME280;11297;42.686;23.374;2023-03-25T02:56:17;94619.81;;;11.64;57.28
22257;BME280;11297;42.686;23.374;2023-03-25T02:58:48;94618.03;;;11.56;57.82
22257;BME280;11297;42.686;23.374;2023-03-25T03:01:15;94601.09;;;11.50;58.21
22257;BME280;11297;42.686;23.374;2023-03-25T03:03:41;94618.28;;;11.63;58.42
22257;BME280;11297;42.686;23.374;2023-03-25T03:06:07;94611.97;;;11.73;58.25
22257;BME280;11297;42.686;23.374;2023-03-25T03:18:44;94612.19;;;12.08;57.39
22257;BME280;11297;42.686;23.374;2023-03-25T03:24:26;94606.78;;;12.13;56.86
22257;BME280;11297;42.686;23.374;2023-03-25T03:29:47;94591.41;;;12.00;55.97
22257;BME280;11297;42.686;23.374;2023-03-25T03:32:45;94613.75;;;12.21;55.89
22257;BME280;11297;42.686;23.374;2023-03-25T03:35:48;94622.66;;;12.20;55.58
22257;BME280;11297;42.686;23.374;2023-03-25T03:38:09;94601.47;;;12.10;55.37
22257;BME280;11297;42.686;23.374;2023-03-25T03:40:37;94618.09;;;12.17;55.95
22257;BME280;11297;42.686;23.374;2023-03-25T03:43:07;94600.50;;;12.14;55.59
22257;BME280;11297;42.686;23.374;2023-03-25T03:45:48;94617.91;;;12.22;55.73
22257;BME280;11297;42.686;23.374;2023-03-25T03:48:29;94609.97;;;12.19;55.76
22257;BME280;11297;42.686;23.374;2023-03-25T03:56:22;94614.47;;;12.30;54.97
22257;BME280;11297;42.686;23.374;2023-03-25T03:58:52;94604.34;;;12.29;55.70
22257;BME280;11297;42.686;23.374;2023-03-25T04:01:32;94612.06;;;12.25;55.84
22257;BME280;11297;42.686;23.374;2023-03-25T04:04:05;94615.28;;;12.22;55.90
22257;BME280;11297;42.686;23.374;2023-03-25T04:06:39;94614.41;;;12.18;55.84
22257;BME280;11297;42.686;23.374;2023-03-25T04:12:27;94620.63;;;11.85;56.86
22257;BME280;11297;42.686;23.374;2023-03-25T04:14:55;94619.72;;;11.81;57.02
22257;BME280;11297;42.686;23.374;2023-03-25T04:17:22;94622.06;;;11.74;58.00
22257;BME280;11297;42.686;23.374;2023-03-25T04:19:48;94617.09;;;11.61;58.51
22257;BME280;11297;42.686;23.374;2023-03-25T04:22:18;94610.25;;;11.48;58.64
22257;BME280;11297;42.686;23.374;2023-03-25T04:24:45;94616.81;;;11.45;59.56
22257;BME280;11297;42.686;23.374;2023-03-25T04:27:17;94609.22;;;11.32;60.17
22257;BME280;11297;42.686;23.374;2023-03-25T04:29:43;94618.66;;;11.45;59.88
22257;BME280;11297;42.686;23.374;2023-03-25T04:32:12;94625.25;;;11.51;60.17
22257;BME280;11297;42.686;23.374;2023-03-25T04:34:38;94610.31;;;11.31;60.24
22257;BME280;11297;42.686;23.374;2023-03-25T04:37:03;94620.34;;;11.41;60.14
22257;BME280;11297;42.686;23.374;2023-03-25T04:39:29;94625.56;;;11.49;59.97
22257;BME280;11297;42.686;23.374;2023-03-25T04:41:57;94624.19;;;11.43;59.67
22257;BME280;11297;42.686;23.374;2023-03-25T04:44:26;94627.72;;;11.47;59.76
22257;BME280;11297;42.686;23.374;2023-03-25T04:46:52;94634.28;;;11.53;59.61
22257;BME280;11297;42.686;23.374;2023-03-25T04:49:21;94625.22;;;11.59;59.47
22257;BME280;11297;42.686;23.374;2023-03-25T04:51:51;94621.16;;;11.70;59.96
22257;BME280;11297;42.686;23.374;2023-03-25T04:54:19;94623.03;;;11.90;59.08
22257;BME280;11297;42.686;23.374;2023-03-25T04:56:46;94633.81;;;12.00;58.79
22257;BME280;11297;42.686;23.374;2023-03-25T04:59:12;94634.41;;;12.06;58.30
22257;BME280;11297;42.686;23.374;2023-03-25T05:01:38;94635.44;;;12.13;57.87
22257;BME280;11297;42.686;23.374;2023-03-25T05:04:08;94640.31;;;12.15;57.15
22257;BME280;11297;42.686;23.374;2023-03-25T05:06:38;94636.13;;;12.22;57.06
22257;BME280;11297;42.686;23.374;2023-03-25T05:09:05;94630.53;;;12.32;56.51
22257;BME280;11297;42.686;23.374;2023-03-25T05:11:33;94626.41;;;12.31;57.24
22257;BME280;11297;42.686;23.374;2023-03-25T05:13:59;94635.97;;;12.39;57.73
22257;BME280;11297;42.686;23.374;2023-03-25T05:16:24;94618.72;;;12.35;57.36
22257;BME280;11297;42.686;23.374;2023-03-25T05:18:50;94629.97;;;12.47;56.99
22257;BME280;11297;42.686;23.374;2023-03-25T05:21:16;94629.13;;;12.55;57.07
22257;BME280;11297;42.686;23.374;2023-03-25T05:23:42;94623.41;;;12.73;56.45
22257;BME280;11297;42.686;23.374;2023-03-25T05:26:08;94631.88;;;12.70;56.17
22257;BME280;11297;42.686;23.374;2023-03-25T05:28:34;94631.50;;;13.12;54.92
22257;BME280;11297;42.686;23.374;2023-03-25T05:31:00;94635.44;;;13.30;54.18
22257;BME280;11297;42.686;23.374;2023-03-25T05:33:26;94635.00;;;13.52;53.61
22257;BME280;11297;42.686;23.374;2023-03-25T05:35:51;94627.63;;;13.66;52.93
22257;BME280;11297;42.686;23.374;2023-03-25T05:38:16;94623.56;;;13.80;52.59
22257;BME280;11297;42.686;23.374;2023-03-25T05:40:46;94632.72;;;13.86;51.86
22257;BME280;11297;42.686;23.374;2023-03-25T05:43:15;94638.47;;;14.03;52.15
22257;BME280;11297;42.686;23.374;2023-03-25T05:45:41;94631.34;;;14.28;51.07
22257;BME280;11297;42.686;23.374;2023-03-25T05:48:07;94635.38;;;14.37;50.98
22257;BME280;11297;42.686;23.374;2023-03-25T05:50:34;94629.97;;;14.18;51.55
22257;BME280;11297;42.686;23.374;2023-03-25T05:53:00;94628.25;;;14.10;51.58
22257;BME280;11297;42.686;23.374;2023-03-25T05:55:26;94626.13;;;14.28;51.91
22257;BME280;11297;42.686;23.374;2023-03-25T05:57:52;94630.06;;;14.61;50.85
22257;BME280;11297;42.686;23.374;2023-03-25T06:00:18;94636.16;;;14.92;49.91
22257;BME280;11297;42.686;23.374;2023-03-25T06:02:46;94623.91;;;14.96;50.15
22257;BME280;11297;42.686;23.374;2023-03-25T06:05:14;94633.84;;;15.18;49.09
22257;BME280;11297;42.686;23.374;2023-03-25T06:07:40;94636.47;;;15.33;48.55
22257;BME280;11297;42.686;23.374;2023-03-25T06:10:10;94635.03;;;15.51;48.34
22257;BME280;11297;42.686;23.374;2023-03-25T06:12:36;94631.06;;;15.57;48.58
22257;BME280;11297;42.686;23.374;2023-03-25T06:15:07;94622.09;;;15.42;48.61
22257;BME280;11297;42.686;23.374;2023-03-25T06:17:33;94627.19;;;15.51;48.38
22257;BME280;11297;42.686;23.374;2023-03-25T06:20:04;94623.19;;;15.72;48.14
22257;BME280;11297;42.686;23.374;2023-03-25T06:22:39;94628.91;;;16.08;47.60
22257;BME280;11297;42.686;23.374;2023-03-25T06:25:07;94631.59;;;16.46;46.32
22257;BME280;11297;42.686;23.374;2023-03-25T06:27:33;94623.34;;;16.85;45.72
22257;BME280;11297;42.686;23.374;2023-03-25T06:30:00;94624.28;;;17.15;44.95
22257;BME280;11297;42.686;23.374;2023-03-25T06:32:25;94633.25;;;17.32;44.58
22257;BME280;11297;42.686;23.374;2023-03-25T06:34:51;94626.91;;;17.33;44.64
22257;BME280;11297;42.686;23.374;2023-03-25T06:37:16;94632.44;;;17.51;44.46
22257;BME280;11297;42.686;23.374;2023-03-25T06:39:42;94627.66;;;17.56;44.50
22257;BME280;11297;42.686;23.374;2023-03-25T06:42:14;94630.50;;;17.70;43.92
22257;BME280;11297;42.686;23.374;2023-03-25T06:44:39;94629.84;;;17.76;43.96
22257;BME280;11297;42.686;23.374;2023-03-25T06:47:05;94636.78;;;17.88;43.78
22257;BME280;11297;42.686;23.374;2023-03-25T06:49:31;94627.34;;;17.83;43.20
22257;BME280;11297;42.686;23.374;2023-03-25T06:51:56;94627.69;;;18.08;42.96
22257;BME280;11297;42.686;23.374;2023-03-25T06:54:22;94634.88;;;18.36;42.77
22257;BME280;11297;42.686;23.374;2023-03-25T06:56:48;94630.66;;;18.58;42.08
22257;BME280;11297;42.686;23.374;2023-03-25T06:59:13;94632.75;;;18.78;41.74
22257;BME280;11297;42.686;23.374;2023-03-25T07:01:39;94642.44;;;18.70;41.62
22257;BME280;11297;42.686;23.374;2023-03-25T07:04:05;94641.75;;;18.19;42.54
22257;BME280;11297;42.686;23.374;2023-03-25T07:06:30;94636.25;;;18.01;43.01
22257;BME280;11297;42.686;23.374;2023-03-25T07:08:55;94636.69;;;18.07;43.08
22257;BME280;11297;42.686;23.374;2023-03-25T07:11:25;94636.34;;;18.34;55.28
22257;BME280;11297;42.686;23.374;2023-03-25T07:13:51;94612.22;;;18.58;49.45
22257;BME280;11297;42.686;23.374;2023-03-25T07:16:18;94636.50;;;19.42;49.46
22257;BME280;11297;42.686;23.374;2023-03-25T07:18:44;94633.00;;;20.24;53.16
22257;BME280;11297;42.686;23.374;2023-03-25T07:21:10;94617.13;;;20.95;47.49
22257;BME280;11297;42.686;23.374;2023-03-25T07:23:36;94622.56;;;21.54;45.67
22257;BME280;11297;42.686;23.374;2023-03-25T07:26:01;94624.44;;;21.81;40.45
22257;BME280;11297;42.686;23.374;2023-03-25T07:28:27;94622.59;;;21.71;40.33
22257;BME280;11297;42.686;23.374;2023-03-25T07:30:52;94627.09;;;21.60;41.09
22257;BME280;11297;42.686;23.374;2023-03-25T07:33:17;94625.56;;;22.18;43.29
22257;BME280;11297;42.686;23.374;2023-03-25T07:35:43;94619.53;;;22.35;41.54
22257;BME280;11297;42.686;23.374;2023-03-25T07:38:08;94624.03;;;22.49;41.82
22257;BME280;11297;42.686;23.374;2023-03-25T07:40:34;94619.44;;;22.59;39.93
22257;BME280;11297;42.686;23.374;2023-03-25T07:42:59;94624.63;;;22.91;50.87
22257;BME280;11297;42.686;23.374;2023-03-25T07:45:25;94614.50;;;22.68;36.93
22257;BME280;11297;42.686;23.374;2023-03-25T07:47:51;94616.50;;;22.02;39.72
22257;BME280;11297;42.686;23.374;2023-03-25T07:50:19;94613.50;;;21.93;40.87
22257;BME280;11297;42.686;23.374;2023-03-25T07:52:45;94610.44;;;22.15;43.43
22257;BME280;11297;42.686;23.374;2023-03-25T07:55:11;94595.38;;;21.57;39.66
22257;BME280;11297;42.686;23.374;2023-03-25T07:57:38;94602.34;;;22.74;46.22
22257;BME280;11297;42.686;23.374;2023-03-25T08:00:06;94591.91;;;22.15;40.23
22257;BME280;11297;42.686;23.374;2023-03-25T08:02:32;94595.56;;;22.70;46.21
22257;BME280;11297;42.686;23.374;2023-03-25T08:04:57;94586.09;;;22.69;42.65
22257;BME280;11297;42.686;23.374;2023-03-25T08:07:24;94581.06;;;22.99;44.71
22257;BME280;11297;42.686;23.374;2023-03-25T08:09:49;94592.06;;;24.05;45.33
22257;BME280;11297;42.686;23.374;2023-03-25T08:12:15;94579.84;;;24.14;37.48
22257;BME280;11297;42.686;23.374;2023-03-25T08:14:40;94580.16;;;24.90;37.21
22257;BME280;11297;42.686;23.374;2023-03-25T08:17:06;94576.63;;;25.00;35.35
22257;BME280;11297;42.686;23.374;2023-03-25T08:19:32;94569.91;;;25.44;40.45
22257;BME280;11297;42.686;23.374;2023-03-25T08:25:03;94576.16;;;26.67;37.83
22257;BME280;11297;42.686;23.374;2023-03-25T08:27:29;94565.66;;;26.99;36.71
22257;BME280;11297;42.686;23.374;2023-03-25T08:29:55;94556.09;;;26.21;34.47
22257;BME280;11297;42.686;23.374;2023-03-25T08:32:25;94536.00;;;26.16;32.12
22257;BME280;11297;42.686;23.374;2023-03-25T08:34:52;94560.00;;;25.22;33.61
22257;BME280;11297;42.686;23.374;2023-03-25T08:37:18;94563.13;;;25.66;38.91
22257;BME280;11297;42.686;23.374;2023-03-25T08:39:43;94553.06;;;25.99;35.28
22257;BME280;11297;42.686;23.374;2023-03-25T08:42:12;94559.47;;;25.30;32.94
22257;BME280;11297;42.686;23.374;2023-03-25T08:44:38;94554.06;;;25.11;37.92
22257;BME280;11297;42.686;23.374;2023-03-25T08:47:04;94551.53;;;24.38;35.18
22257;BME280;11297;42.686;23.374;2023-03-25T08:49:29;94543.22;;;25.25;39.98
22257;BME280;11297;42.686;23.374;2023-03-25T08:51:55;94535.41;;;25.86;36.72
22257;BME280;11297;42.686;23.374;2023-03-25T08:54:23;94547.31;;;25.78;33.38
22257;BME280;11297;42.686;23.374;2023-03-25T08:56:48;94545.72;;;26.26;36.81
22257;BME280;11297;42.686;23.374;2023-03-25T08:59:14;94545.41;;;26.44;36.49
22257;BME280;11297;42.686;23.374;2023-03-25T09:01:40;94531.72;;;26.80;36.44
22257;BME280;11297;42.686;23.374;2023-03-25T09:04:07;94529.16;;;27.12;35.88
22257;BME280;11297;42.686;23.374;2023-03-25T09:06:33;94522.53;;;26.46;32.36
22257;BME280;11297;42.686;23.374;2023-03-25T09:09:00;94518.84;;;25.98;37.25
22257;BME280;11297;42.686;23.374;2023-03-25T09:11:25;94517.06;;;26.11;37.35
22257;BME280;11297;42.686;23.374;2023-03-25T09:13:51;94514.31;;;25.27;34.70
22257;BME280;11297;42.686;23.374;2023-03-25T09:16:16;94519.00;;;24.90;35.05
22257;BME280;11297;42.686;23.374;2023-03-25T09:18:42;94509.66;;;24.49;36.85
22257;BME280;11297;42.686;23.374;2023-03-25T09:21:07;94507.13;;;24.68;35.45
22257;BME280;11297;42.686;23.374;2023-03-25T09:23:33;94517.03;;;24.67;39.01
22257;BME280;11297;42.686;23.374;2023-03-25T09:26:01;94512.38;;;25.76;45.71
22257;BME280;11297;42.686;23.374;2023-03-25T09:28:28;94504.34;;;25.99;34.71
22257;BME280;11297;42.686;23.374;2023-03-25T09:30:54;94496.00;;;26.58;42.04
22257;BME280;11297;42.686;23.374;2023-03-25T09:33:20;94501.03;;;26.72;37.62
22257;BME280;11297;42.686;23.374;2023-03-25T09:35:45;94496.00;;;26.58;34.82
22257;BME280;11297;42.686;23.374;2023-03-25T09:38:11;94498.47;;;26.49;39.49
22257;BME280;11297;42.686;23.374;2023-03-25T09:40:41;94493.09;;;26.69;40.09
22257;BME280;11297;42.686;23.374;2023-03-25T09:45:58;94482.44;;;25.92;34.18
22257;BME280;11297;42.686;23.374;2023-03-25T09:48:35;94488.78;;;25.98;36.95
22257;BME280;11297;42.686;23.374;2023-03-25T09:51:09;94480.25;;;26.06;33.13
22257;BME280;11297;42.686;23.374;2023-03-25T09:54:01;94472.50;;;25.50;33.14
22257;BME280;11297;42.686;23.374;2023-03-25T09:56:30;94467.75;;;25.38;37.74
22257;BME280;11297;42.686;23.374;2023-03-25T09:59:08;94468.78;;;25.21;34.80
22257;BME280;11297;42.686;23.374;2023-03-25T10:12:50;94460.34;;;24.14;34.04
22257;BME280;11297;42.686;23.374;2023-03-25T10:23:35;94431.88;;;23.85;34.17
22257;BME280;11297;42.686;23.374;2023-03-25T10:29:01;94421.00;;;23.73;31.54
22257;BME280;11297;42.686;23.374;2023-03-25T10:31:30;94423.63;;;23.76;32.31
22257;BME280;11297;42.686;23.374;2023-03-25T10:34:06;94417.81;;;23.88;30.69
22257;BME280;11297;42.686;23.374;2023-03-25T10:36:44;94416.19;;;23.98;36.75
22257;BME280;11297;42.686;23.374;2023-03-25T10:39:19;94419.97;;;24.00;32.14
22257;BME280;11297;42.686;23.374;2023-03-25T10:41:50;94409.22;;;24.10;32.19
22257;BME280;11297;42.686;23.374;2023-03-25T10:44:20;94399.84;;;24.29;32.18
22257;BME280;11297;42.686;23.374;2023-03-25T10:46:50;94392.63;;;24.33;31.36
22257;BME280;11297;42.686;23.374;2023-03-25T10:49:25;94397.28;;;24.52;30.42
22257;BME280;11297;42.686;23.374;2023-03-25T10:51:51;94388.56;;;24.51;30.17
22257;BME280;11297;42.686;23.374;2023-03-25T10:54:21;94387.91;;;24.44;29.76
22257;BME280;11297;42.686;23.374;2023-03-25T10:56:53;94372.28;;;24.49;30.37
22257;BME280;11297;42.686;23.374;2023-03-25T10:59:30;94391.47;;;24.34;30.42
22257;BME280;11297;42.686;23.374;2023-03-25T11:02:03;94378.09;;;24.41;31.70
22257;BME280;11297;42.686;23.374;2023-03-25T11:04:37;94386.38;;;24.16;31.09
22257;BME280;11297;42.686;23.374;2023-03-25T11:07:16;94380.34;;;24.12;33.33
22257;BME280;11297;42.686;23.374;2023-03-25T11:09:43;94370.22;;;24.34;31.10
22257;BME280;11297;42.686;23.374;2023-03-25T11:12:09;94368.06;;;24.52;31.78
22257;BME280;11297;42.686;23.374;2023-03-25T11:14:39;94365.78;;;24.76;31.20
22257;BME280;11297;42.686;23.374;2023-03-25T11:17:30;94355.81;;;24.84;31.48
22257;BME280;11297;42.686;23.374;2023-03-25T11:20:03;94350.72;;;24.70;32.03
22257;BME280;11297;42.686;23.374;2023-03-25T11:22:36;94340.69;;;24.54;30.59
22257;BME280;11297;42.686;23.374;2023-03-25T11:25:13;94344.97;;;24.49;32.47
22257;BME280;11297;42.686;23.374;2023-03-25T11:28:02;94344.31;;;24.41;31.74
22257;BME280;11297;42.686;23.374;2023-03-25T11:30:29;94340.84;;;24.44;31.75
22257;BME280;11297;42.686;23.374;2023-03-25T11:32:58;94336.00;;;24.39;31.55
22257;BME280;11297;42.686;23.374;2023-03-25T11:35:27;94326.59;;;24.57;31.39
22257;BME280;11297;42.686;23.374;2023-03-25T11:37:58;94323.78;;;24.68;31.01
22257;BME280;11297;42.686;23.374;2023-03-25T11:40:27;94317.41;;;24.62;32.88
22257;BME280;11297;42.686;23.374;2023-03-25T11:42:55;94318.44;;;24.71;31.50
22257;BME280;11297;42.686;23.374;2023-03-25T11:45:35;94309.97;;;24.76;32.07
22257;BME280;11297;42.686;23.374;2023-03-25T11:48:15;94315.69;;;24.75;31.15
22257;BME280;11297;42.686;23.374;2023-03-25T11:50:52;94308.94;;;24.70;31.13
22257;BME280;11297;42.686;23.374;2023-03-25T11:53:19;94301.59;;;24.29;31.83
22257;BME280;11297;42.686;23.374;2023-03-25T11:55:48;94307.25;;;24.34;31.94
22257;BME280;11297;42.686;23.374;2023-03-25T11:58:18;94295.00;;;24.40;31.71
22257;BME280;11297;42.686;23.374;2023-03-25T12:00:50;94289.84;;;24.30;31.22
22257;BME280;11297;42.686;23.374;2023-03-25T12:03:24;94281.16;;;24.26;35.26
22257;BME280;11297;42.686;23.374;2023-03-25T12:06:05;94290.56;;;24.30;34.61
22257;BME280;11297;42.686;23.374;2023-03-25T12:08:50;94286.53;;;24.22;31.07
22257;BME280;11297;42.686;23.374;2023-03-25T12:11:19;94270.78;;;24.08;31.85
22257;BME280;11297;42.686;23.374;2023-03-25T12:16:45;94275.56;;;23.94;32.29
22257;BME280;11297;42.686;23.374;2023-03-25T12:22:30;94273.97;;;23.37;32.25
22257;BME280;11297;42.686;23.374;2023-03-25T12:27:46;94292.19;;;23.02;33.38
22257;BME280;11297;42.686;23.374;2023-03-25T12:30:31;94294.53;;;22.90;33.62
22257;BME280;11297;42.686;23.374;2023-03-25T12:33:49;94282.56;;;22.78;32.21
22257;BME280;11297;42.686;23.374;2023-03-25T12:48:32;94286.34;;;22.30;33.91
22257;BME280;11297;42.686;23.374;2023-03-25T13:02:18;94278.88;;;22.22;32.59
22257;BME280;11297;42.686;23.374;2023-03-25T13:05:16;94285.69;;;22.16;33.59
22257;BME280;11297;42.686;23.374;2023-03-25T13:07:49;94278.88;;;22.15;33.36
22257;BME280;11297;42.686;23.374;2023-03-25T13:10:20;94290.22;;;22.12;37.81
22257;BME280;11297;42.686;23.374;2023-03-25T13:12:51;94288.31;;;22.16;33.13
22257;BME280;11297;42.686;23.374;2023-03-25T13:15:38;94278.91;;;22.11;33.78
22257;BME280;11297;42.686;23.374;2023-03-25T13:18:12;94285.28;;;22.14;33.35
22257;BME280;11297;42.686;23.374;2023-03-25T13:20:43;94285.28;;;22.17;32.83
22257;BME280;11297;42.686;23.374;2023-03-25T13:23:15;94280.06;;;22.07;33.32
22257;BME280;11297;42.686;23.374;2023-03-25T13:25:58;94281.25;;;21.99;34.33
22257;BME280;11297;42.686;23.374;2023-03-25T13:28:31;94283.88;;;21.99;37.24
22257;BME280;11297;42.686;23.374;2023-03-25T13:31:05;94273.38;;;21.89;34.05
22257;BME280;11297;42.686;23.374;2023-03-25T13:33:35;94291.16;;;21.85;34.26
22257;BME280;11297;42.686;23.374;2023-03-25T13:36:24;94288.56;;;21.78;34.88
22257;BME280;11297;42.686;23.374;2023-03-25T13:38:55;94291.53;;;21.87;35.50
22257;BME280;11297;42.686;23.374;2023-03-25T13:41:30;94297.19;;;21.92;35.46
22257;BME280;11297;42.686;23.374;2023-03-25T13:46:34;94298.66;;;21.97;35.52
22257;BME280;11297;42.686;23.374;2023-03-25T13:49:29;94302.19;;;21.73;34.26
22257;BME280;11297;42.686;23.374;2023-03-25T13:51:57;94293.53;;;21.62;34.91
22257;BME280;11297;42.686;23.374;2023-03-25T14:10:38;94333.25;;;19.75;40.83
22257;BME280;11297;42.686;23.374;2023-03-25T14:13:15;94350.13;;;19.64;42.07
22257;BME280;11297;42.686;23.374;2023-03-25T14:15:57;94270.09;;;19.04;42.00
22257;BME280;11297;42.686;23.374;2023-03-25T14:18:23;94340.28;;;19.54;42.27
22257;BME280;11297;42.686;23.374;2023-03-25T14:20:49;94350.09;;;19.57;42.07
22257;BME280;11297;42.686;23.374;2023-03-25T14:23:19;94329.34;;;19.45;42.04
22257;BME280;11297;42.686;23.374;2023-03-25T14:25:57;94344.06;;;19.53;43.04
22257;BME280;11297;42.686;23.374;2023-03-25T14:28:43;94332.75;;;19.49;43.39
22257;BME280;11297;42.686;23.374;2023-03-25T14:36:28;94340.56;;;19.31;46.12
22257;BME280;11297;42.686;23.374;2023-03-25T14:38:55;94340.56;;;19.28;46.81
22257;BME280;11297;42.686;23.374;2023-03-25T14:44:26;94324.22;;;19.02;48.22
22257;BME280;11297;42.686;23.374;2023-03-25T14:49:50;94299.44;;;18.10;50.49
22257;BME280;11297;42.686;23.374;2023-03-25T14:52:30;94267.66;;;17.82;52.46
22257;BME280;11297;42.686;23.374;2023-03-25T14:54:57;94268.41;;;17.79;53.22
22257;BME280;11297;42.686;23.374;2023-03-25T14:57:28;94265.31;;;17.73;54.62
22257;BME280;11297;42.686;23.374;2023-03-25T15:00:03;94262.25;;;17.68;54.01
22257;BME280;11297;42.686;23.374;2023-03-25T15:02:42;94262.97;;;17.65;53.26
22257;BME280;11297;42.686;23.374;2023-03-25T15:05:21;94261.06;;;17.59;54.73
22257;BME280;11297;42.686;23.374;2023-03-25T15:10:33;94273.63;;;17.43;55.35
22257;BME280;11297;42.686;23.374;2023-03-25T15:13:04;94272.19;;;17.49;55.57
22257;BME280;11297;42.686;23.374;2023-03-25T15:15:56;94270.84;;;17.62;55.28
22257;BME280;11297;42.686;23.374;2023-03-25T15:26:02;94274.94;;;17.59;55.63
22257;BME280;11297;42.686;23.374;2023-03-25T15:37:55;94255.38;;;17.93;55.02
22257;BME280;11297;42.686;23.374;2023-03-25T15:40:33;94251.38;;;18.09;55.11
22257;BME280;11297;42.686;23.374;2023-03-25T15:54:28;94244.56;;;18.01;54.00